Dodge City Regional Airport
KDDC : now visible

Airfield :











YOU CAN JOIN US ON...

 
LOGIN :

Register | Disclaimer

   EN    FR    IT 

 









Legend :    VFR   Marginal VFR   IFR   Intensive IFR   Very Intensive IFR
Visi :
Ceiling :
>= 8 km
>= 3000ft
5 to 8 km
1000 to 3000 ft
1500m to 5 km
500 to 1000 ft
800 to 1500m
200 to 500 ft
< 800m
< 200 ft
Symbols :   Thunderstorms  Fog  Heavy snow  Heavy precipitations  Wind > 20 kt






- Airport Elevation : 2594 ft
- IATA code : DDC


KDDC - Dodge City Regional

CURRENT METAR :
  • 030852Z AUTO 00000KT 10SM BKN080 BKN110 16/13 A3017 RMK AO2 SLP194 T01560133 56004

EXPIRED METARs :
  • 030752Z AUTO 12003KT 10SM CLR 16/13 A3017 RMK AO2 SLP192 T01560128
  • 030652Z AUTO 06005KT 10SM CLR 15/13 A3016 RMK AO2 SLP191 T01500128

TAF KDDC
Valid from the 03 at 06:00 until the 04 at 06:00 UTC


030520Z 0306/0406 VRB04KT P6SM SKC
FM031200 VRB04KT P6SM VCTS FEW090CB
FM031600 14008KT P6SM SCT100
FM031800 13008KT P6SM SCT090
KZKC FIR / North America



MET'MAP, your aeronautical weather chart ! - Copyright ORBIFLY December 2007 - Disclaimer

ORBIFLY MET'MAP TEAM :

Programming & Development : Alexandra Zaïnal
Concept & original design : Baudouin d'Aumeries
Assistance for programming : Marc-Olivier Méhu
Technical & hardware support : Manuel Goepfert

Contact : metmap@orbifly.com




SOURCES & CREDITS :

   NOAA       Earth
Advisory